Fiscus, Iowa
Current Conditions -  °F | °C
As of 12:35 PM on Sunday 23 Nov 2014 (Local Time) from KADU Reporting Station
Drizzle Drizzle  
Wind Chill: 40°   Ceiling: Unl
Heat Index: 46°   Visibility: 7mi
Dew Point: 43°   Wind: 16mph
Humidity: 87%   Direction: 330°NNW
Pressure: 29.42"   Gusts: 22mph
Location:  41.7468°N, 94.8805°W
Report Text: KADU 231835Z AUTO 33014G19KT 7SM -DZ CLR 08/06 A2942 RMK AO2 P0001
Loading
Personal Weather Stations






























Interactive Weather Map New forecast layout! Learn more

10-Day Weather Forecast

Advertisements
Track Severe Weather on mobile